FR1119 / EI-FRN 7700 Squawk Report (22nd of September, 2018)

Aircraft B738 Reg No. EI-FRN Age 2 years old
Model 737 Jet engines 2 First flight 06-05-16
Registered 18-05-16 Rollout N/A Delivered 18-05-16
Construction No. 44744 Line No. 5909 Series 8AS
ADSHEX 4CABBD Airline name Ryanair Owner N/A
Airfield based Dublin~Co Dublin~EI First tracked 2016-05-03 03:33:05

Flight history for EI-FRN

Route Flight No Date Playback
Provence (MRS) - Barajas (MAD) FR5447 2018-12-12 23:18:00
Sale (RBA) - Provence (MRS) FR7250 2018-12-12 21:19:00
Provence (MRS) - Sale (RBA) FR7253 2018-12-12 17:53:00
Barajas (MAD) - Provence (MRS) FR5446 2018-12-12 14:55:00
Ciampino (CIA) - Barajas (MAD) FR9673 2018-12-12 13:34:00
Barajas (MAD) - Ciampino (CIA) FR9674 2018-12-12 09:02:00
Porto (OPO) - Barajas (MAD) FR5485 2018-12-11 21:26:00
Barajas (MAD) - Porto (OPO) FR5484 2018-12-11 20:35:00
Ciampino (CIA) - Barajas (MAD) FR9601 2018-12-11 17:48:00
Barajas (MAD) - Ciampino (CIA) FR9602 2018-12-11 15:27:00
Václav Havel Airport Prague (PRG) - Barajas (MAD) FR2767 2018-12-11 12:51:00
Barajas (MAD) - Václav Havel Airport Prague (PRG) FR2766 2018-12-11 07:58:00
Tille (BVA) - Barajas (MAD) FR5445 2018-12-09 22:02:00
Sale (RBA) - Tille (BVA) FR8098 2018-12-09 19:37:00
Barajas (MAD) - Sale (RBA) FR5352 2018-12-09 16:02:00
Ferihegy (BUD) - Barajas (MAD) FR8367 2018-12-09 12:54:00
Barajas (MAD) - Ferihegy (BUD) FR8368 2018-12-09 08:45:00
Porto (OPO) - Barajas (MAD) FR5485 2018-12-09 06:16:00
Barajas (MAD) - Porto (OPO) FR5484 2018-12-08 19:49:00
Ciampino (CIA) - Barajas (MAD) FR9601 2018-12-08 19:00:00
Time Lat Lon Altitude Heading Speed Vertical Rate
2018-09-22 08:34:42 GMT 51.886196 0.244409 0 42 27 0
2018-09-22 08:33:45 GMT 51.880463 0.235816 0 42 28 0
2018-09-22 08:33:35 GMT 51.879513 0.234387 0 42 27 0
2018-09-22 08:30:59 GMT 51.896294 0.251744 250 223 148 -768
2018-09-22 08:30:55 GMT 51.897877 0.254177 300 224 147 -640
2018-09-22 08:30:47 GMT 51.901794 0.260010 400 223 147 -704
2018-09-22 08:30:42 GMT 51.903885 0.263123 425 224 146 -768
2018-09-22 08:30:37 GMT 51.906631 0.267282 575 223 145 -832
2018-09-22 08:30:34 GMT 51.907928 0.269241 575 224 145 -768
2018-09-22 08:30:31 GMT 51.909302 0.271301 600 223 144 -832
2018-09-22 08:30:25 GMT 51.912598 0.276260 700 223 144 -640
2018-09-22 08:30:22 GMT 51.914154 0.278625 725 223 144 -640
2018-09-22 08:30:15 GMT 51.917496 0.283585 775 223 144 -768
2018-09-22 08:30:12 GMT 51.918964 0.285801 850 223 144 -832
2018-09-22 08:30:04 GMT 51.922577 0.291214 950 224 144 -768
2018-09-22 08:30:01 GMT 51.924225 0.293806 1,000 224 145 -832
2018-09-22 08:29:56 GMT 51.926739 0.297729 1,050 223 149 -704
2018-09-22 08:29:53 GMT 51.928600 0.300398 1,100 222 152 -768
2018-09-22 08:29:44 GMT 51.934753 0.309372 1,275 223 174 -896
2018-09-22 08:29:41 GMT 51.934753 0.309372 1,250 223 161 -832
2018-09-22 08:29:36 GMT 51.937592 0.313721 1,350 224 168 -896
2018-09-22 08:29:33 GMT 51.939541 0.316642 1,375 224 169 -832
2018-09-22 08:29:30 GMT 51.940567 0.318222 1,475 223 178 -768
2018-09-22 08:29:24 GMT 51.944614 0.324489 1,475 224 173 -960
2018-09-22 08:29:20 GMT 51.946838 0.327835 1,575 224 175 -896
2018-09-22 08:29:15 GMT 51.949829 0.332336 1,650 224 175 -1024
2018-09-22 08:29:12 GMT 51.951458 0.334848 1,750 223 178 -768
2018-09-22 08:29:09 GMT 51.952904 0.337045 1,750 224 176 -896
2018-09-22 08:29:04 GMT 51.957977 0.344657 1,875 223 182 -1088
2018-09-22 08:28:58 GMT 51.959698 0.347168 1,875 223 179 -832
2018-09-22 08:28:54 GMT 51.962494 0.351410 2,000 223 181 -1024
2018-09-22 08:28:50 GMT 51.964588 0.354545 2,025 223 182 -1024
2018-09-22 08:28:47 GMT 51.966591 0.357527 2,075 223 182 -960
2018-09-22 08:28:44 GMT 51.968719 0.360641 2,150 222 182 -832
2018-09-22 08:28:41 GMT 51.970871 0.363726 2,200 223 182 -896
2018-09-22 08:28:38 GMT 51.972363 0.366002 2,225 224 182 -896
2018-09-22 08:28:33 GMT 51.975128 0.370331 2,325 228 180 -1024
2018-09-22 08:28:30 GMT 51.977062 0.373771 2,350 230 179 -832
2018-09-22 08:28:27 GMT 51.978321 0.376203 2,375 232 178 -704
2018-09-22 08:28:24 GMT 51.981171 0.382385 2,475 235 177 -768
2018-09-22 08:28:21 GMT 51.981171 0.382385 2,450 233 176 -704
2018-09-22 08:28:17 GMT 51.986298 0.391312 2,550 221 178 -768
2018-09-22 08:28:13 GMT 51.986298 0.391312 2,650 195 186 -1024
2018-09-22 08:28:10 GMT 51.988792 0.393546 2,625 201 184 -960
2018-09-22 08:28:06 GMT 51.990749 0.394645 2,650 198 185 -1024
2018-09-22 08:28:03 GMT 51.994148 0.395508 2,775 183 189 -896
2018-09-22 08:28:00 GMT 51.996616 0.395508 2,775 175 191 -832
2018-09-22 08:27:57 GMT 51.998932 0.395203 2,800 174 193 -768
2018-09-22 08:27:54 GMT 52.001770 0.394745 2,850 174 194 -768
2018-09-22 08:27:51 GMT 52.004436 0.394252 2,875 174 196 -704
2018-09-22 08:27:48 GMT 52.006950 0.393860 2,925 172 202 -384
2018-09-22 08:27:45 GMT 52.010254 0.393311 2,950 174 198 -576
2018-09-22 08:27:42 GMT 52.012619 0.392914 3,000 172 201 -448
2018-09-22 08:27:38 GMT 52.016495 0.392055 3,000 166 207 -448
2018-09-22 08:27:35 GMT 52.019302 0.391006 3,050 157 213 -1088
2018-09-22 08:27:31 GMT 52.022278 0.389252 3,075 151 217 -1216
2018-09-22 08:27:28 GMT 52.026123 0.385818 3,175 144 222 -1216
2018-09-22 08:27:24 GMT 52.029694 0.381241 3,250 138 226 -1216
2018-09-22 08:27:21 GMT 52.030739 0.379578 3,300 133 229 -1216
2018-09-22 08:27:17 GMT 52.033718 0.373692 3,400 119 237 -1472
2018-09-22 08:27:14 GMT 52.035233 0.369797 3,450 115 238 -1472
2018-09-22 08:27:10 GMT 52.037155 0.363312 3,550 111 241 -1472
2018-09-22 08:27:07 GMT 52.038326 0.358233 3,600 107 246 -1664
2018-09-22 08:27:04 GMT 52.039536 0.352325 3,950 107 246 -1664
2018-09-22 08:27:01 GMT 52.040886 0.345677 3,800 107 248 -1856
2018-09-22 08:26:57 GMT 52.043060 0.334702 3,950 107 248 -1856
2018-09-22 08:26:54 GMT 52.044098 0.329354 4,050 107 248 -1920
2018-09-22 08:26:51 GMT 52.044098 0.329354 4,150 107 249 -2304
2018-09-22 08:26:48 GMT 52.045357 0.322920 4,250 107 249 -2368
2018-09-22 08:26:45 GMT 52.045990 0.319672 4,300 107 249 -2368
2018-09-22 08:26:42 GMT 52.047497 0.312247 4,475 107 249 -1920
2018-09-22 08:26:36 GMT 52.049377 0.302582 4,700 107 253 -1664
2018-09-22 08:26:33 GMT 52.050476 0.297102 4,750 107 257 -960
2018-09-22 08:26:30 GMT 52.051594 0.291295 4,950 107 256 -1152
2018-09-22 08:26:27 GMT 52.052673 0.285797 4,825 107 256 -1152
2018-09-22 08:26:23 GMT 52.054138 0.278397 5,025 107 266 -640
2018-09-22 08:26:20 GMT 52.056389 0.266732 4,975 107 266 -640
2018-09-22 08:26:14 GMT 52.057087 0.262887 5,100 104 270 -704
2018-09-22 08:26:10 GMT 52.058716 0.253549 5,050 102 273 -768
2018-09-22 08:26:07 GMT 52.059494 0.247574 5,100 99 275 -704
2018-09-22 08:26:04 GMT 52.060020 0.243112 5,150 98 281 -640
2018-09-22 08:26:01 GMT 52.060719 0.235735 5,175 98 279 -640
2018-09-22 08:25:58 GMT 52.061604 0.226632 5,225 98 282 -640
2018-09-22 08:25:55 GMT 52.061974 0.222395 5,250 98 284 -704
2018-09-22 08:25:52 GMT 52.062534 0.216509 5,275 98 286 -704
2018-09-22 08:25:49 GMT 52.063000 0.211408 5,300 98 289 -832
2018-09-22 08:25:46 GMT 52.063660 0.204163 5,350 98 289 -832
2018-09-22 08:25:43 GMT 52.064117 0.198539 5,375 96 292 -1152
2018-09-22 08:25:40 GMT 52.064667 0.190201 5,500 90 295 -1664
2018-09-22 08:25:37 GMT 52.064758 0.185852 5,500 90 295 -1664
2018-09-22 08:25:34 GMT 52.064629 0.178292 5,625 83 294 -1920
2018-09-22 08:25:30 GMT 52.063835 0.167777 5,775 80 296 -1280
2018-09-22 08:25:27 GMT 52.063091 0.160714 5,825 80 296 -1280
2018-09-22 08:25:23 GMT 52.062256 0.152867 5,900 80 297 -1280
2018-09-22 08:25:19 GMT 52.061371 0.144501 6,025 80 298 -1344
2018-09-22 08:25:16 GMT 52.059906 0.130386 6,100 74 306 -192
2018-09-22 08:25:13 GMT 52.059906 0.130386 6,175 80 298 -1344
2018-09-22 08:25:10 GMT 52.058395 0.117188 6,250 78 298 -1536
2018-09-22 08:25:07 GMT 52.058395 0.117188 6,275 77 297 -1728
2018-09-22 08:25:04 GMT 52.057274 0.108922 6,500 72 296 -1984
2018-09-22 08:25:00 GMT 52.056576 0.104606 6,475 73 296 -1984
2018-09-22 08:24:57 GMT 52.055008 0.096588 6,575 71 295 -1984
2018-09-22 08:24:54 GMT 52.053818 0.090714 6,700 71 292 -1920
2018-09-22 08:24:51 GMT 52.051361 0.078631 6,875 71 292 -1472
2018-09-22 08:24:45 GMT 52.049927 0.071487 6,975 72 293 -512
2018-09-22 08:24:42 GMT 52.048782 0.065689 6,975 72 294 -128
2018-09-22 08:24:39 GMT 52.046082 0.052261 7,000 72 294 0
2018-09-22 08:24:36 GMT 52.046082 0.052261 7,000 72 294 0
2018-09-22 08:24:33 GMT 52.044937 0.046387 7,000 71 294 0
2018-09-22 08:24:30 GMT 52.043308 0.038452 7,000 71 294 -192
2018-09-22 08:24:25 GMT 52.041119 0.027544 7,025 71 293 -1024
2018-09-22 08:24:22 GMT 52.039032 0.017014 7,100 71 294 -960
2018-09-22 08:24:16 GMT 52.037254 0.008240 7,200 71 293 -1024
2018-09-22 08:24:10 GMT 52.035278 -0.001373 7,250 71 294 -960
2018-09-22 08:24:07 GMT 52.033722 -0.008926 7,325 71 294 -960
2018-09-22 08:24:04 GMT 52.030609 -0.023956 7,550 71 295 -960
2018-09-22 08:24:00 GMT 52.030609 -0.023956 7,425 71 295 -960
2018-09-22 08:23:57 GMT 52.029739 -0.028229 7,475 71 296 -960
2018-09-22 08:23:54 GMT 52.028137 -0.035782 7,525 71 297 -1024
2018-09-22 08:23:51 GMT 52.024933 -0.051041 7,600 71 299 -1024
2018-09-22 08:23:48 GMT 52.024933 -0.051041 7,650 70 299 -1088
2018-09-22 08:23:44 GMT 52.023651 -0.056992 7,700 70 300 -1216
2018-09-22 08:23:41 GMT 52.022125 -0.064192 7,775 70 300 -1408
2018-09-22 08:23:38 GMT 52.021008 -0.069292 7,850 71 301 -1280
2018-09-22 08:23:35 GMT 52.017883 -0.084305 7,975 71 302 -896
2018-09-22 08:23:32 GMT 52.017883 -0.084305 8,000 73 304 -320
2018-09-22 08:23:29 GMT 52.017014 -0.088577 8,025 74 305 -256
2018-09-22 08:23:26 GMT 52.015514 -0.096994 8,025 74 306 -192
2018-09-22 08:23:23 GMT 52.014912 -0.101467 8,025 81 309 256
2018-09-22 08:23:19 GMT 52.014027 -0.110648 8,000 88 315 64
2018-09-22 08:23:16 GMT 52.013699 -0.118103 8,000 87 314 64
2018-09-22 08:23:12 GMT 52.013561 -0.128540 7,975 89 323 0
2018-09-22 08:23:09 GMT 52.013515 -0.136309 7,975 89 327 0
2018-09-22 08:23:06 GMT 52.013466 -0.143136 7,975 89 330 0
2018-09-22 08:23:03 GMT 52.013443 -0.152588 7,975 89 336 0
2018-09-22 08:23:00 GMT 52.013420 -0.156084 7,975 89 342 -448
2018-09-22 08:22:57 GMT 52.013306 -0.178223 8,025 89 347 -832
2018-09-22 08:22:53 GMT 52.013306 -0.178223 8,050 96 356 -2048
2018-09-22 08:22:50 GMT 52.013306 -0.183487 8,075 90 351 -1280
2018-09-22 08:22:47 GMT 52.013351 -0.189743 8,125 73 398 -1920
2018-09-22 08:22:44 GMT 52.014175 -0.207748 8,300 96 356 -2048
2018-09-22 08:22:41 GMT 52.014175 -0.207748 8,425 96 356 -2048
2018-09-22 08:22:38 GMT 52.014816 -0.216293 8,450 97 358 -2048
2018-09-22 08:22:35 GMT 52.015423 -0.224278 9,100 74 401 -1856
2018-09-22 08:22:32 GMT 52.015797 -0.230791 8,625 94 362 -1984
2018-09-22 08:22:29 GMT 52.016167 -0.241621 8,775 91 366 -1792
2018-09-22 08:22:26 GMT 52.016258 -0.247114 8,900 89 370 -1792
2018-09-22 08:22:23 GMT 52.016258 -0.258179 8,975 87 372 -1792
2018-09-22 08:22:20 GMT 52.016026 -0.266026 9,075 85 375 -1856
2018-09-22 08:22:17 GMT 52.015594 -0.274429 9,150 82 376 -2112
2018-09-22 08:22:14 GMT 52.015091 -0.281143 9,225 81 377 -2176
2018-09-22 08:22:11 GMT 52.013046 -0.297337 9,400 76 381 -2496
2018-09-22 08:22:08 GMT 52.013046 -0.297337 9,525 75 383 -2368
2018-09-22 08:22:05 GMT 52.011791 -0.305106 9,600 74 388 -2240
2018-09-22 08:22:02 GMT 52.010376 -0.313416 9,675 74 388 -2240
2018-09-22 08:21:59 GMT 52.008720 -0.322920 9,775 74 388 -2304
2018-09-22 08:21:56 GMT 52.007034 -0.332489 10,000 73 392 -2560
2018-09-22 08:21:53 GMT 52.005432 -0.341492 10,100 73 394 -2432
2018-09-22 08:21:50 GMT 52.004196 -0.348358 10,175 73 395 -2176
2018-09-22 08:21:47 GMT 52.002853 -0.355722 10,500 74 400 -1856
2018-09-22 08:21:44 GMT 52.001457 -0.363726 10,375 74 401 -1856
2018-09-22 08:21:40 GMT 51.998886 -0.378265 10,525 74 406 -2240
2018-09-22 08:21:37 GMT 51.997467 -0.386505 10,650 74 408 -2752
2018-09-22 08:21:34 GMT 51.996048 -0.394745 10,775 74 409 -3136
2018-09-22 08:21:31 GMT 51.994801 -0.402414 10,925 74 410 -3200
2018-09-22 08:21:28 GMT 51.992798 -0.414263 11,150 75 415 -1408
2018-09-22 08:21:25 GMT 51.991402 -0.422660 11,200 75 415 -1344
2018-09-22 08:21:22 GMT 51.989960 -0.431671 11,375 75 419 -1664
2018-09-22 08:21:19 GMT 51.988358 -0.441360 11,350 75 419 -1856
2018-09-22 08:21:16 GMT 51.986698 -0.451695 11,500 75 421 -2432
2018-09-22 08:21:13 GMT 51.985348 -0.460249 11,575 75 422 -2560
2018-09-22 08:21:10 GMT 51.984371 -0.466370 11,875 76 423 -2240
2018-09-22 08:21:07 GMT 51.982590 -0.477982 11,800 75 423 -2304
2018-09-22 08:21:04 GMT 51.981628 -0.484161 11,875 76 423 -2240
2018-09-22 08:21:01 GMT 51.979671 -0.497131 11,975 76 424 -2048
2018-09-22 08:20:58 GMT 51.978973 -0.501404 12,075 76 426 -2112
2018-09-22 08:20:55 GMT 51.976913 -0.515060 12,400 76 429 -2176
2018-09-22 08:20:52 GMT 51.975712 -0.523185 12,375 76 429 -2176
2018-09-22 08:20:49 GMT 51.974083 -0.534406 12,450 76 430 -2432
2018-09-22 08:20:46 GMT 51.972885 -0.542526 12,575 76 430 -2688
2018-09-22 08:20:43 GMT 51.971897 -0.549473 12,625 76 430 -2880
2018-09-22 08:20:40 GMT 51.970219 -0.560774 12,875 76 431 -2368
2018-09-22 08:20:37 GMT 51.969040 -0.568924 12,950 76 432 -2240
2018-09-22 08:20:34 GMT 51.967392 -0.580292 13,050 76 433 -1728
2018-09-22 08:20:31 GMT 51.966171 -0.588475 13,150 76 434 -1216
2018-09-22 08:20:28 GMT 51.964600 -0.599213 13,225 76 436 -960
2018-09-22 08:20:25 GMT 51.963318 -0.608139 13,750 94 449 -832
2018-09-22 08:20:22 GMT 51.961746 -0.618923 13,300 76 438 -960
2018-09-22 08:20:19 GMT 51.960445 -0.627869 13,350 76 437 -960
2018-09-22 08:20:16 GMT 51.957699 -0.647016 13,400 77 439 -896
2018-09-22 08:20:13 GMT 51.957699 -0.647016 13,450 78 441 -896
2018-09-22 08:20:10 GMT 51.956314 -0.658035 13,500 81 443 -960
2018-09-22 08:20:07 GMT 51.955399 -0.667191 13,525 85 444 -960
2018-09-22 08:20:04 GMT 51.954941 -0.673752 13,575 85 444 -960
2018-09-22 08:20:01 GMT 51.954437 -0.696411 13,675 89 447 -960
2018-09-22 08:19:58 GMT 51.954437 -0.696411 13,675 92 448 -896
2018-09-22 08:19:55 GMT 51.954674 -0.703831 13,750 97 451 -832
2018-09-22 08:19:52 GMT 51.955555 -0.717172 13,750 102 453 -1024
2018-09-22 08:19:49 GMT 51.956207 -0.723842 13,775 100 452 -832
2018-09-22 08:19:46 GMT 51.957886 -0.737183 13,950 103 456 -2048
2018-09-22 08:19:43 GMT 51.958862 -0.743774 13,875 103 455 -1728
2018-09-22 08:19:40 GMT 51.960251 -0.753708 13,950 103 456 -2176
2018-09-22 08:19:37 GMT 51.961887 -0.765041 14,100 103 456 -2752
2018-09-22 08:19:34 GMT 51.963238 -0.774379 14,225 103 456 -3392
2018-09-22 08:19:31 GMT 51.965057 -0.787048 14,425 103 457 -3008
2018-09-22 08:19:28 GMT 51.966431 -0.796356 14,625 103 463 -1920
2018-09-22 08:19:25 GMT 51.968170 -0.808487 14,650 103 464 -2048
2018-09-22 08:19:22 GMT 51.968948 -0.813904 14,725 103 464 -2048
2018-09-22 08:19:19 GMT 51.970966 -0.828134 14,850 103 466 -448
2018-09-22 08:19:16 GMT 51.971878 -0.834198 14,900 103 465 -1024
2018-09-22 08:19:13 GMT 51.973709 -0.847124 14,975 103 466 -448
2018-09-22 08:19:10 GMT 51.974689 -0.853873 14,975 103 467 -384
2018-09-22 08:19:07 GMT 51.976830 -0.868862 15,025 103 468 -768
2018-09-22 08:19:04 GMT 51.977810 -0.875689 15,050 103 469 -960
2018-09-22 08:19:01 GMT 51.979576 -0.888009 15,100 103 470 -960
2018-09-22 08:18:58 GMT 51.981308 -0.899658 15,175 104 471 -960
2018-09-22 08:18:55 GMT 51.982315 -0.906525 15,200 104 471 -960
2018-09-22 08:18:52 GMT 51.984467 -0.920181 15,225 104 471 -960
2018-09-22 08:18:49 GMT 51.987579 -0.936356 15,300 108 471 -960
2018-09-22 08:18:46 GMT 51.990982 -0.950082 15,350 113 471 -1024
2018-09-22 08:18:43 GMT 51.990982 -0.950082 15,400 115 471 -1024
2018-09-22 08:18:40 GMT 51.993805 -0.959625 15,425 116 470 -1024
2018-09-22 08:18:37 GMT 51.995220 -0.964050 15,450 118 469 -1024
2018-09-22 08:18:34 GMT 51.999344 -0.975571 15,550 123 468 -1024
2018-09-22 08:18:31 GMT 52.002388 -0.983198 15,575 124 467 -1024
2018-09-22 08:18:25 GMT 52.010010 -1.001053 15,675 124 468 -1024
2018-09-22 08:18:22 GMT 52.018169 -1.020081 15,800 124 468 -1088
2018-09-22 08:18:19 GMT 52.021614 -1.028163 15,800 124 468 -1088
2018-09-22 08:18:16 GMT 52.021614 -1.028163 15,850 124 469 -960
2018-09-22 08:18:13 GMT 52.024796 -1.035690 15,925 124 468 -960
2018-09-22 08:18:10 GMT 52.027527 -1.042053 15,950 124 470 -1152
2018-09-22 08:18:07 GMT 52.031437 -1.051313 15,925 124 470 -1024
2018-09-22 08:18:04 GMT 52.036652 -1.063461 16,000 124 472 -1472
2018-09-22 08:18:01 GMT 52.039398 -1.069911 16,050 124 473 -1856
2018-09-22 08:17:58 GMT 52.044422 -1.081526 16,300 125 475 -2496
2018-09-22 08:17:55 GMT 52.047916 -1.089687 16,325 124 474 -2880
2018-09-22 08:17:52 GMT 52.051453 -1.097927 16,550 124 474 -2816
2018-09-22 08:17:49 GMT 52.055191 -1.106644 16,625 125 475 -2176
2018-09-22 08:17:46 GMT 52.062069 -1.122410 16,750 125 477 -1728
2018-09-22 08:17:43 GMT 52.066212 -1.131670 16,850 127 479 -1664
2018-09-22 08:17:40 GMT 52.066212 -1.131670 17,325 137 472 -3904
2018-09-22 08:17:37 GMT 52.070541 -1.140773 16,975 129 479 -1984
2018-09-22 08:17:34 GMT 52.075802 -1.150426 17,100 134 475 -3584
2018-09-22 08:17:30 GMT 52.081432 -1.159450 17,450 138 472 -3776
2018-09-22 08:17:26 GMT 52.086960 -1.167374 17,550 140 472 -3136
2018-09-22 08:17:23 GMT 52.091351 -1.173261 17,825 141 473 -3072
2018-09-22 08:17:20 GMT 52.097122 -1.180878 18,200 141 474 -3136
2018-09-22 08:17:17 GMT 52.101883 -1.187134 18,350 140 476 -3392
2018-09-22 08:17:14 GMT 52.108017 -1.195145 18,150 140 476 -3392
2018-09-22 08:17:11 GMT 52.112438 -1.201041 18,275 140 476 -3392
2018-09-22 08:17:08 GMT 52.123764 -1.215897 18,600 141 478 -3328
2018-09-22 08:17:05 GMT 52.123764 -1.215897 18,750 140 481 -3136
2018-09-22 08:17:02 GMT 52.129662 -1.223642 18,775 140 482 -3072
2018-09-22 08:16:59 GMT 52.134842 -1.230469 19,150 141 484 -3136
2018-09-22 08:16:56 GMT 52.139008 -1.235962 19,225 141 487 -3328
2018-09-22 08:16:53 GMT 52.145325 -1.244202 19,300 141 487 -3328
2018-09-22 08:16:50 GMT 52.150562 -1.251107 19,700 141 490 -3392
2018-09-22 08:16:47 GMT 52.155167 -1.257095 19,600 141 490 -3392
2018-09-22 08:16:44 GMT 52.161530 -1.265411 20,050 141 493 -3648
2018-09-22 08:16:41 GMT 52.165787 -1.270905 20,000 141 493 -3648
2018-09-22 08:16:38 GMT 52.171837 -1.278809 20,100 141 500 -3264
2018-09-22 08:16:35 GMT 52.176819 -1.285322 20,300 141 498 -3392
2018-09-22 08:16:32 GMT 52.181488 -1.291351 20,750 141 497 -3456
2018-09-22 08:16:29 GMT 52.185791 -1.296921 20,725 141 498 -3392
2018-09-22 08:16:26 GMT 52.192245 -1.305389 21,050 141 502 -3072
2018-09-22 08:16:23 GMT 52.197674 -1.312395 20,925 141 502 -3072
2018-09-22 08:16:20 GMT 52.210419 -1.328964 21,175 141 506 -3200
2018-09-22 08:16:17 GMT 52.210419 -1.328964 21,275 141 507 -3264
2018-09-22 08:16:14 GMT 52.215225 -1.335074 21,450 141 509 -3392
2018-09-22 08:16:11 GMT 52.220345 -1.341745 21,625 141 510 -3456
2018-09-22 08:16:08 GMT 52.225559 -1.348415 21,675 141 511 -3328
2018-09-22 08:16:05 GMT 52.229237 -1.353202 21,775 141 512 -3136
2018-09-22 08:16:02 GMT 52.235596 -1.361389 22,275 141 519 -3328
2018-09-22 08:15:59 GMT 52.242691 -1.370544 22,175 141 518 -3072
2018-09-22 08:15:56 GMT 52.247208 -1.376351 22,400 141 519 -3328
2018-09-22 08:15:53 GMT 52.259628 -1.392441 22,650 141 522 -3776
2018-09-22 08:15:50 GMT 52.259628 -1.392441 22,825 141 524 -3200
2018-09-22 08:15:47 GMT 52.264938 -1.399307 22,850 141 529 -2752
2018-09-22 08:15:44 GMT 52.270622 -1.406721 23,100 141 529 -2752
2018-09-22 08:15:41 GMT 52.276382 -1.414185 23,100 141 530 -3200
2018-09-22 08:15:38 GMT 52.280960 -1.420212 23,275 141 532 -3712
2018-09-22 08:15:35 GMT 52.287476 -1.428693 23,450 141 534 -3520
2018-09-22 08:15:32 GMT 52.293274 -1.436310 23,700 141 539 -2240
2018-09-22 08:15:29 GMT 52.299854 -1.444938 23,750 141 542 -2112
2018-09-22 08:15:26 GMT 52.306503 -1.453629 23,800 141 544 -2176
2018-09-22 08:15:23 GMT 52.311218 -1.459808 24,000 141 548 -3136
2018-09-22 08:15:20 GMT 52.316711 -1.467133 24,150 141 551 -3264
2018-09-22 08:15:17 GMT 52.324249 -1.477033 24,275 141 554 -3456
2018-09-22 08:15:14 GMT 52.330215 -1.484909 24,350 141 553 -3264
2018-09-22 08:15:11 GMT 52.333794 -1.489668 24,500 141 556 -3904
2018-09-22 08:15:08 GMT 52.342209 -1.500702 24,725 141 556 -5120
2018-09-22 08:15:05 GMT 52.347015 -1.507034 25,025 141 554 -5568
2018-09-22 08:15:02 GMT 52.354553 -1.516976 25,750 141 554 -5632
2018-09-22 08:14:59 GMT 52.357765 -1.521214 25,600 141 553 -5632
2018-09-22 08:14:56 GMT 52.366104 -1.532211 25,750 141 553 -5696
2018-09-22 08:14:53 GMT 52.372059 -1.540126 26,100 140 552 -5696
2018-09-22 08:14:50 GMT 52.376015 -1.545384 26,325 140 552 -5440
2018-09-22 08:14:47 GMT 52.383499 -1.555405 26,700 140 551 -5184
2018-09-22 08:14:44 GMT 52.388214 -1.561737 27,000 140 551 -4480
2018-09-22 08:14:41 GMT 52.394077 -1.569711 27,125 140 551 -4928
2018-09-22 08:14:38 GMT 52.399570 -1.577087 27,325 140 551 -4736
2018-09-22 08:14:35 GMT 52.407028 -1.587143 27,625 140 551 -4352
2018-09-22 08:14:32 GMT 52.410965 -1.592484 27,900 140 552 -4224
2018-09-22 08:14:29 GMT 52.417633 -1.601493 28,500 140 552 -4352
2018-09-22 08:14:26 GMT 52.423508 -1.609497 28,250 140 553 -4288
2018-09-22 08:14:23 GMT 52.434902 -1.625035 28,575 140 554 -3968
2018-09-22 08:14:20 GMT 52.442028 -1.634687 28,700 139 558 -3904
2018-09-22 08:14:17 GMT 52.442028 -1.634687 28,825 140 555 -4032
2018-09-22 08:14:14 GMT 52.447128 -1.641693 29,125 140 556 -4224
2018-09-22 08:14:11 GMT 52.454224 -1.651459 29,125 140 557 -4224
2018-09-22 08:14:08 GMT 52.458939 -1.657944 29,500 139 557 -4160
2018-09-22 08:14:05 GMT 52.464092 -1.664978 30,225 139 558 -3904
2018-09-22 08:14:02 GMT 52.469971 -1.673126 29,800 139 558 -3904
2018-09-22 08:13:59 GMT 52.475510 -1.680756 29,900 139 559 -4032
2018-09-22 08:13:56 GMT 52.488922 -1.699295 30,350 139 559 -4160
2018-09-22 08:13:53 GMT 52.488922 -1.699295 30,425 139 559 -4224
2018-09-22 08:13:50 GMT 52.495239 -1.707993 30,600 139 560 -4160
2018-09-22 08:13:47 GMT 52.501194 -1.716143 30,850 139 560 -4224
2018-09-22 08:13:44 GMT 52.507141 -1.724319 31,300 140 559 -4352
2018-09-22 08:13:41 GMT 52.513111 -1.732465 31,275 140 558 -4352
2018-09-22 08:13:38 GMT 52.519043 -1.740570 31,600 140 558 -4288
2018-09-22 08:13:35 GMT 52.524582 -1.748199 31,875 140 558 -4032
2018-09-22 08:13:32 GMT 52.530121 -1.755753 31,850 140 558 -4032
2018-09-22 08:13:29 GMT 52.542023 -1.771927 32,250 140 557 -4160
2018-09-22 08:13:26 GMT 52.542023 -1.771927 32,375 140 556 -4288
2018-09-22 08:13:23 GMT 52.549988 -1.782608 32,525 140 556 -4288
2018-09-22 08:13:20 GMT 52.555149 -1.789594 32,625 140 555 -4096
2018-09-22 08:13:17 GMT 52.559509 -1.795502 32,850 140 555 -4032
2018-09-22 08:13:14 GMT 52.565826 -1.804047 33,100 140 555 -3776
2018-09-22 08:13:11 GMT 52.572559 -1.813137 33,300 140 556 -3456
2018-09-22 08:13:08 GMT 52.578506 -1.821136 33,500 140 556 -3648
2018-09-22 08:13:05 GMT 52.584869 -1.829681 34,350 142 552 -3392
2018-09-22 08:13:02 GMT 52.591232 -1.838226 33,750 140 556 -3840
2018-09-22 08:12:59 GMT 52.595993 -1.844635 33,975 141 555 -3712
2018-09-22 08:12:56 GMT 52.603180 -1.854172 34,225 141 554 -3712
2018-09-22 08:12:53 GMT 52.606773 -1.858887 34,325 141 553 -3520
2018-09-22 08:12:50 GMT 52.612793 -1.866608 34,450 142 552 -3392
2018-09-22 08:12:47 GMT 52.619762 -1.875131 34,875 143 551 -3392
2018-09-22 08:12:44 GMT 52.628002 -1.884862 34,925 145 548 -3648
2018-09-22 08:12:41 GMT 52.633392 -1.891022 35,050 145 548 -3584
2018-09-22 08:12:38 GMT 52.639297 -1.897507 35,150 146 547 -3264
2018-09-22 08:12:35 GMT 52.650723 -1.909581 35,675 150 540 -4736
2018-09-22 08:12:32 GMT 52.658890 -1.917725 35,775 150 538 -5056
2018-09-22 08:12:29 GMT 52.658890 -1.917725 35,675 150 540 -4736
2018-09-22 08:12:26 GMT 52.666222 -1.924726 35,825 150 538 -5056
2018-09-22 08:12:23 GMT 52.670105 -1.928253 36,250 151 532 -5184
2018-09-22 08:12:20 GMT 52.676193 -1.933670 36,350 152 530 -4864
2018-09-22 08:12:17 GMT 52.684845 -1.941071 36,900 154 525 -1408
2018-09-22 08:12:14 GMT 52.689194 -1.944656 36,800 154 523 -704
2018-09-22 08:12:11 GMT 52.697021 -1.950989 36,925 154 524 -960
2018-09-22 08:12:08 GMT 52.704025 -1.956406 36,975 155 523 -448
2018-09-22 08:12:05 GMT 52.708862 -1.959961 37,000 156 519 0
2018-09-22 08:12:02 GMT 52.718124 -1.966476 37,000 157 517 0
2018-09-22 08:11:59 GMT 52.723854 -1.970398 37,000 157 517 64
2018-09-22 08:11:56 GMT 52.730484 -1.974869 37,000 157 517 0
2018-09-22 08:11:53 GMT 52.735352 -1.978167 37,000 157 517 64
2018-09-22 08:11:50 GMT 52.742428 -1.982954 37,000 157 517 64
2018-09-22 08:11:47 GMT 52.749939 -1.988068 37,000 157 517 0
2018-09-22 08:11:44 GMT 52.756989 -1.992874 37,000 157 516 64
2018-09-22 08:11:41 GMT 52.764038 -1.997604 37,000 157 517 0
2018-09-22 08:11:38 GMT 52.768917 -2.000924 37,000 157 517 0
2018-09-22 08:11:35 GMT 52.776833 -2.006339 37,000 157 516 0
2018-09-22 08:11:32 GMT 52.783447 -2.010803 37,000 157 517 0
2018-09-22 08:11:29 GMT 52.788712 -2.014465 37,000 157 516 64
2018-09-22 08:11:26 GMT 52.796677 -2.019882 37,000 157 516 64
2018-09-22 08:11:23 GMT 52.803272 -2.024388 37,000 157 516 64
2018-09-22 08:11:20 GMT 52.808121 -2.027664 37,000 157 516 64
2018-09-22 08:11:17 GMT 52.815170 -2.032471 37,000 157 516 64
2018-09-22 08:11:14 GMT 52.820869 -2.036394 37,000 157 516 64
2018-09-22 08:11:11 GMT 52.829224 -2.042160 37,000 157 516 64
2018-09-22 08:11:08 GMT 52.835812 -2.046674 37,000 157 516 0
2018-09-22 08:11:05 GMT 52.843773 -2.052089 37,000 157 516 0
2018-09-22 08:11:02 GMT 52.849033 -2.055699 37,000 157 516 0
2018-09-22 08:10:59 GMT 52.854294 -2.059309 37,000 157 515 0
2018-09-22 08:10:56 GMT 52.860901 -2.063828 37,000 157 515 0
2018-09-22 08:10:53 GMT 52.870121 -2.070217 37,000 157 515 0
2018-09-22 08:10:50 GMT 52.878036 -2.075631 37,000 157 515 0
2018-09-22 08:10:47 GMT 52.883297 -2.079241 37,000 157 515 0
2018-09-22 08:10:44 GMT 52.889008 -2.083206 37,000 157 514 64
2018-09-22 08:10:41 GMT 52.895584 -2.087716 37,000 157 515 0
2018-09-22 08:10:38 GMT 52.901321 -2.091599 37,000 157 515 0
2018-09-22 08:10:35 GMT 52.907036 -2.095564 37,000 157 515 0
2018-09-22 08:10:32 GMT 52.916245 -2.101898 37,000 157 514 0
2018-09-22 08:10:29 GMT 52.920639 -2.104874 37,000 157 514 0
2018-09-22 08:10:26 GMT 52.928078 -2.110081 37,000 157 514 0
2018-09-22 08:10:23 GMT 52.934647 -2.114563 37,000 157 514 0
2018-09-22 08:10:20 GMT 52.939911 -2.118225 37,000 157 514 64
2018-09-22 08:10:17 GMT 52.954380 -2.128209 37,000 157 513 0
2018-09-22 08:10:14 GMT 52.954380 -2.128209 37,000 157 514 0
2018-09-22 08:10:11 GMT 52.960968 -2.132721 37,000 157 514 0
2018-09-22 08:10:08 GMT 52.967510 -2.137312 37,000 157 515 0
2018-09-22 08:10:04 GMT 52.977146 -2.143982 37,000 157 515 0
2018-09-22 08:10:01 GMT 52.983292 -2.148220 37,000 157 515 0
2018-09-22 08:09:58 GMT 52.995987 -2.156982 37,000 157 514 0
2018-09-22 08:09:55 GMT 52.995987 -2.156982 37,000 157 514 0
2018-09-22 08:09:52 GMT 53.003860 -2.162476 37,000 157 514 0
2018-09-22 08:09:49 GMT 53.010429 -2.166975 37,000 157 513 0
2018-09-22 08:09:46 GMT 53.016575 -2.171212 37,000 157 512 64
2018-09-22 08:09:43 GMT 53.022263 -2.175217 37,000 157 513 0
2018-09-22 08:09:40 GMT 53.028816 -2.179766 37,000 157 513 0
2018-09-22 08:09:37 GMT 53.034077 -2.183376 37,000 157 513 0
2018-09-22 08:09:34 GMT 53.042831 -2.189418 37,000 157 513 0
2018-09-22 08:09:31 GMT 53.047207 -2.192479 37,000 157 513 0
2018-09-22 08:09:28 GMT 53.061630 -2.202377 37,000 157 513 0
2018-09-22 08:09:25 GMT 53.061630 -2.202377 37,000 157 512 64
2018-09-22 08:09:22 GMT 53.068199 -2.206918 37,000 157 513 0
2018-09-22 08:09:19 GMT 53.076069 -2.212411 37,000 157 513 64
2018-09-22 08:09:16 GMT 53.089645 -2.221756 37,000 157 512 64
2018-09-22 08:09:13 GMT 53.089645 -2.221756 37,000 157 513 64
2018-09-22 08:09:10 GMT 53.096180 -2.226266 37,000 157 512 64
2018-09-22 08:09:07 GMT 53.100128 -2.228969 37,000 157 512 64
2018-09-22 08:09:04 GMT 53.105816 -2.232890 37,000 157 512 0
2018-09-22 08:09:01 GMT 53.112797 -2.237737 37,000 157 512 64
2018-09-22 08:08:58 GMT 53.121964 -2.244036 37,000 157 511 0
2018-09-22 08:08:55 GMT 53.128052 -2.248274 37,000 157 511 0
2018-09-22 08:08:52 GMT 53.134586 -2.252763 37,000 157 511 0
2018-09-22 08:08:49 GMT 53.138912 -2.255752 37,000 157 510 0
2018-09-22 08:08:46 GMT 53.145012 -2.259952 37,000 157 508 0
2018-09-22 08:08:43 GMT 53.151535 -2.264439 37,000 157 508 0
2018-09-22 08:08:40 GMT 53.159767 -2.270212 37,000 157 509 0
2018-09-22 08:08:37 GMT 53.167145 -2.275269 37,000 157 509 64
2018-09-22 08:08:34 GMT 53.171921 -2.278613 37,000 157 508 0
2018-09-22 08:08:31 GMT 53.180576 -2.284591 37,000 157 508 0
2018-09-22 08:08:28 GMT 53.193146 -2.293318 37,000 157 508 0
2018-09-22 08:08:25 GMT 53.198318 -2.296927 37,000 157 508 0
2018-09-22 08:08:22 GMT 53.198318 -2.296927 37,000 157 508 0
2018-09-22 08:08:19 GMT 53.205669 -2.302040 37,000 157 508 0
2018-09-22 08:08:16 GMT 53.212605 -2.306806 37,000 157 508 0
2018-09-22 08:08:13 GMT 53.216934 -2.309795 37,000 157 508 0
2018-09-22 08:08:10 GMT 53.225594 -2.315853 37,000 157 508 0
2018-09-22 08:08:07 GMT 53.231647 -2.320054 37,000 157 508 64
2018-09-22 08:08:04 GMT 53.236404 -2.323373 37,000 157 508 0
2018-09-22 08:08:01 GMT 53.244633 -2.329102 37,000 157 508 0
2018-09-22 08:07:58 GMT 53.251572 -2.333868 37,000 157 508 0
2018-09-22 08:07:55 GMT 53.257622 -2.338068 37,000 157 508 0
2018-09-22 08:07:52 GMT 53.262360 -2.341422 37,000 157 508 0
2018-09-22 08:07:49 GMT 53.270142 -2.346837 37,000 157 508 0
2018-09-22 08:07:46 GMT 53.278385 -2.352528 37,000 157 508 0
2018-09-22 08:07:43 GMT 53.282272 -2.355233 37,000 157 508 0
2018-09-22 08:07:40 GMT 53.287445 -2.358843 37,000 157 508 64
2018-09-22 08:07:37 GMT 53.296967 -2.365513 37,000 157 508 64
2018-09-22 08:07:34 GMT 53.303474 -2.370058 37,000 157 508 0
2018-09-22 08:07:30 GMT 53.312134 -2.376036 37,000 157 508 0
2018-09-22 08:07:27 GMT 53.317749 -2.379953 37,000 157 508 0
2018-09-22 08:07:24 GMT 53.322922 -2.383562 37,000 157 508 0
2018-09-22 08:07:21 GMT 53.329880 -2.388428 37,000 157 508 0
2018-09-22 08:07:18 GMT 53.337662 -2.393842 37,000 157 508 0
2018-09-22 08:07:15 GMT 53.343277 -2.397766 37,000 157 508 0
2018-09-22 08:07:12 GMT 53.351097 -2.403178 37,000 157 508 0
2018-09-22 08:07:09 GMT 53.357151 -2.407460 37,000 157 508 0
2018-09-22 08:07:06 GMT 53.363201 -2.411661 37,000 157 508 64
2018-09-22 08:07:03 GMT 53.368835 -2.415658 37,000 157 508 64
2018-09-22 08:07:00 GMT 53.377487 -2.421701 37,000 157 508 0
2018-09-22 08:06:57 GMT 53.383080 -2.425636 37,000 157 508 0
2018-09-22 08:06:54 GMT 53.390018 -2.430483 37,000 157 508 0
2018-09-22 08:06:51 GMT 53.406006 -2.441790 37,000 157 508 0
2018-09-22 08:06:47 GMT 53.406006 -2.441790 37,000 157 508 0
2018-09-22 08:06:44 GMT 53.412094 -2.446027 37,000 157 508 0
2018-09-22 08:06:41 GMT 53.415947 -2.448820 37,000 157 505 64
2018-09-22 08:06:38 GMT 53.423767 -2.454313 37,000 157 508 0
2018-09-22 08:06:35 GMT 53.430222 -2.458819 37,000 157 508 0
2018-09-22 08:06:32 GMT 53.435825 -2.462795 37,000 157 508 0
2018-09-22 08:06:29 GMT 53.444485 -2.468935 37,000 157 508 0
2018-09-22 08:06:26 GMT 53.456131 -2.477182 37,000 157 508 64
2018-09-22 08:06:23 GMT 53.463474 -2.482345 37,000 157 508 0
2018-09-22 08:06:20 GMT 53.463474 -2.482345 37,000 157 508 0
2018-09-22 08:06:17 GMT 53.468689 -2.486061 37,000 157 508 0
2018-09-22 08:06:14 GMT 53.475578 -2.490908 37,000 157 508 0
2018-09-22 08:06:11 GMT 53.480747 -2.494624 37,000 157 507 0
2018-09-22 08:06:08 GMT 53.490246 -2.501328 37,000 157 507 0
2018-09-22 08:06:05 GMT 53.494125 -2.504020 37,000 157 507 0
2018-09-22 08:06:02 GMT 53.501038 -2.508963 37,000 157 507 0
2018-09-22 08:05:59 GMT 53.507950 -2.513829 37,000 157 507 0
2018-09-22 08:05:56 GMT 53.513992 -2.518066 37,000 157 507 0
2018-09-22 08:05:53 GMT 53.521339 -2.523301 37,000 157 508 64
2018-09-22 08:05:50 GMT 53.526508 -2.526936 37,000 157 507 0
2018-09-22 08:05:47 GMT 53.534683 -2.532741 37,000 157 507 0
2018-09-22 08:05:44 GMT 53.539032 -2.535801 37,000 157 507 0
2018-09-22 08:05:41 GMT 53.546337 -2.540992 37,000 157 507 0
2018-09-22 08:05:38 GMT 53.552811 -2.545611 37,000 157 507 0
2018-09-22 08:05:35 GMT 53.559723 -2.550476 37,000 157 507 0
2018-09-22 08:05:32 GMT 53.566216 -2.555048 37,000 157 507 0
2018-09-22 08:05:29 GMT 53.572678 -2.559658 37,000 157 507 0
2018-09-22 08:05:26 GMT 53.577850 -2.563346 37,000 157 507 0
2018-09-22 08:05:23 GMT 53.592499 -2.573704 37,000 157 507 0
2018-09-22 08:05:20 GMT 53.592499 -2.573704 37,000 157 507 0
2018-09-22 08:05:17 GMT 53.597267 -2.577021 37,000 157 506 0
2018-09-22 08:05:14 GMT 53.604584 -2.582258 37,000 157 507 0
2018-09-22 08:05:11 GMT 53.611046 -2.586796 37,000 157 506 0
2018-09-22 08:05:08 GMT 53.617100 -2.591077 37,000 157 506 0
2018-09-22 08:05:05 GMT 53.625275 -2.596933 37,000 157 506 0
2018-09-22 08:05:02 GMT 53.630447 -2.600621 37,000 157 506 0
2018-09-22 08:04:59 GMT 53.636044 -2.604568 37,000 157 506 0
2018-09-22 08:04:56 GMT 53.644657 -2.610707 37,000 156 506 0
2018-09-22 08:04:53 GMT 53.650707 -2.614988 37,000 157 505 64
2018-09-22 08:04:50 GMT 53.658005 -2.620161 37,000 156 506 0
2018-09-22 08:04:47 GMT 53.670914 -2.629342 37,000 157 505 64
2018-09-22 08:04:43 GMT 53.670914 -2.629342 37,000 157 505 64
2018-09-22 08:04:40 GMT 53.678223 -2.634538 37,000 156 506 64
2018-09-22 08:04:37 GMT 53.692841 -2.645039 37,000 156 506 0
2018-09-22 08:04:34 GMT 53.692841 -2.645039 37,000 156 506 64
2018-09-22 08:04:31 GMT 53.698006 -2.648674 37,000 156 506 64
2018-09-22 08:04:28 GMT 53.704468 -2.653355 37,000 156 506 0
2018-09-22 08:04:25 GMT 53.711334 -2.658221 37,000 156 506 0
2018-09-22 08:04:22 GMT 53.715637 -2.661360 37,000 156 506 0
2018-09-22 08:04:19 GMT 53.723797 -2.667173 37,000 156 506 64
2018-09-22 08:04:15 GMT 53.732361 -2.673313 37,000 156 506 64
2018-09-22 08:04:12 GMT 53.737930 -2.677368 37,000 156 506 64
2018-09-22 08:04:09 GMT 53.745667 -2.682861 37,000 156 506 0
2018-09-22 08:04:06 GMT 53.750839 -2.686628 37,000 156 506 0
2018-09-22 08:04:03 GMT 53.757267 -2.691246 37,000 156 506 64
2018-09-22 08:04:00 GMT 53.762436 -2.694882 37,000 156 506 0
2018-09-22 08:03:57 GMT 53.770161 -2.700456 37,000 156 507 0
2018-09-22 08:03:54 GMT 53.781334 -2.708534 37,000 156 506 0
2018-09-22 08:03:48 GMT 53.789948 -2.714673 37,000 156 506 64
2018-09-22 08:03:45 GMT 53.794231 -2.717824 37,000 156 506 0
2018-09-22 08:03:42 GMT 53.803680 -2.724609 37,000 156 506 0
2018-09-22 08:03:39 GMT 53.810570 -2.729537 37,000 156 506 64
2018-09-22 08:03:36 GMT 53.816574 -2.733899 37,000 156 506 64
2018-09-22 08:03:33 GMT 53.821289 -2.737244 37,000 156 506 0
2018-09-22 08:03:30 GMT 53.828156 -2.742188 37,000 156 506 0
2018-09-22 08:03:27 GMT 53.836361 -2.748117 37,000 156 506 0
2018-09-22 08:03:24 GMT 53.842804 -2.752703 37,000 156 506 64
2018-09-22 08:03:21 GMT 53.847107 -2.755842 37,000 156 506 0
2018-09-22 08:03:18 GMT 53.851814 -2.759184 37,000 156 506 64
2018-09-22 08:03:15 GMT 53.859543 -2.764758 37,000 156 506 0
2018-09-22 08:03:12 GMT 53.874207 -2.775260 37,000 157 506 0
2018-09-22 08:03:09 GMT 53.874207 -2.775260 37,000 157 506 0
2018-09-22 08:03:06 GMT 53.879375 -2.778895 37,000 157 506 0
2018-09-22 08:03:03 GMT 53.886703 -2.784171 37,000 157 506 0
2018-09-22 08:03:00 GMT 53.892269 -2.788185 37,000 157 506 0
2018-09-22 08:02:57 GMT 53.898743 -2.792803 37,000 157 506 0
2018-09-22 08:02:54 GMT 53.906048 -2.798040 37,000 157 507 64
2018-09-22 08:02:51 GMT 53.911217 -2.801756 37,000 157 507 64
2018-09-22 08:02:48 GMT 53.917694 -2.806379 37,000 156 508 0
2018-09-22 08:02:45 GMT 53.924561 -2.811323 37,000 156 508 0
2018-09-22 08:02:42 GMT 53.938774 -2.821548 37,000 156 507 64
2018-09-22 08:02:39 GMT 53.938774 -2.821548 37,000 156 507 0
2018-09-22 08:02:36 GMT 53.945251 -2.826233 37,000 156 507 0
2018-09-22 08:02:33 GMT 53.950424 -2.830000 37,000 156 508 0
2018-09-22 08:02:30 GMT 53.959442 -2.836573 37,000 156 508 0
2018-09-22 08:02:27 GMT 53.965496 -2.840935 37,000 156 508 0
2018-09-22 08:02:24 GMT 53.969776 -2.844086 37,000 156 508 0
2018-09-22 08:02:21 GMT 53.984444 -2.854749 37,000 156 508 64
2018-09-22 08:02:18 GMT 53.984444 -2.854749 37,000 156 508 64
2018-09-22 08:02:15 GMT 53.988773 -2.857899 37,000 156 508 64
2018-09-22 08:02:12 GMT 53.995239 -2.862645 37,000 156 508 64
2018-09-22 08:02:09 GMT 54.003437 -2.868643 37,000 156 509 0
2018-09-22 08:02:06 GMT 54.009018 -2.872689 37,000 156 509 0
2018-09-22 08:02:02 GMT 54.015491 -2.877449 37,000 156 509 0
2018-09-22 08:01:59 GMT 54.023266 -2.883103 37,000 156 509 0
2018-09-22 08:01:56 GMT 54.030579 -2.888463 37,000 156 509 0
2018-09-22 08:01:53 GMT 54.037094 -2.893201 37,000 156 509 0
2018-09-22 08:01:50 GMT 54.044403 -2.898507 37,000 156 509 0
2018-09-22 08:01:47 GMT 54.050446 -2.902980 37,000 156 509 0
2018-09-22 08:01:44 GMT 54.057358 -2.908003 37,000 156 510 64
2018-09-22 08:01:41 GMT 54.062977 -2.912104 37,000 156 509 0
2018-09-22 08:01:38 GMT 54.070312 -2.917419 37,000 156 510 64
2018-09-22 08:01:35 GMT 54.075531 -2.921265 37,000 156 510 0
2018-09-22 08:01:32 GMT 54.081573 -2.925659 37,000 156 509 64
2018-09-22 08:01:29 GMT 54.088951 -2.931007 37,000 156 509 64
2018-09-22 08:01:26 GMT 54.095005 -2.935369 37,000 156 510 64
2018-09-22 08:01:23 GMT 54.103226 -2.941354 37,000 156 510 0
2018-09-22 08:01:20 GMT 54.107529 -2.944571 37,000 156 510 64
2018-09-22 08:01:17 GMT 54.115765 -2.950556 37,000 156 510 64
2018-09-22 08:01:14 GMT 54.120979 -2.954272 37,000 156 510 0
2018-09-22 08:01:11 GMT 54.129227 -2.960266 37,000 156 510 64
2018-09-22 08:01:08 GMT 54.135269 -2.964661 37,000 156 510 0
2018-09-22 08:01:05 GMT 54.139183 -2.967520 37,000 156 511 0
2018-09-22 08:01:02 GMT 54.148315 -2.974156 37,000 156 511 0
2018-09-22 08:00:59 GMT 54.155228 -2.979178 37,000 156 511 0
2018-09-22 08:00:56 GMT 54.159992 -2.982627 37,000 156 511 0
2018-09-22 08:00:53 GMT 54.166088 -2.987070 37,000 156 511 0
2018-09-22 08:00:50 GMT 54.174316 -2.993068 37,000 156 511 64
2018-09-22 08:00:47 GMT 54.179535 -2.996835 37,000 156 511 64
2018-09-22 08:00:44 GMT 54.186897 -3.002257 37,000 156 511 128
2018-09-22 08:00:38 GMT 54.198624 -3.010803 37,000 156 511 -64
2018-09-22 08:00:35 GMT 54.205536 -3.015826 37,000 156 511 -64
2018-09-22 08:00:32 GMT 54.212082 -3.020594 37,000 156 511 -64
2018-09-22 08:00:29 GMT 54.219021 -3.025683 37,000 156 511 0
2018-09-22 08:00:26 GMT 54.225956 -3.030772 37,000 156 511 0
2018-09-22 08:00:23 GMT 54.232006 -3.035215 37,000 156 511 64
2018-09-22 08:00:20 GMT 54.238495 -3.039995 37,000 156 511 64
2018-09-22 08:00:17 GMT 54.245880 -3.045394 37,000 156 511 64
2018-09-22 08:00:14 GMT 54.253235 -3.050825 37,000 156 511 64
2018-09-22 08:00:11 GMT 54.258453 -3.054670 37,000 156 511 64
2018-09-22 08:00:08 GMT 54.264084 -3.058885 37,000 156 511 64
2018-09-22 08:00:05 GMT 54.271854 -3.064620 37,000 156 509 256
2018-09-22 08:00:02 GMT 54.276184 -3.067851 37,000 156 510 64
2018-09-22 07:59:59 GMT 54.284409 -3.073910 37,000 156 509 384
2018-09-22 07:59:56 GMT 54.290451 -3.078353 36,900 156 508 896
2018-09-22 07:59:53 GMT 54.296448 -3.082796 36,950 156 508 832
2018-09-22 07:59:50 GMT 54.303791 -3.088240 36,900 156 507 960
2018-09-22 07:59:47 GMT 54.309402 -3.092409 36,775 156 507 896
2018-09-22 07:59:43 GMT 54.318008 -3.098791 36,825 156 507 960
2018-09-22 07:59:40 GMT 54.324875 -3.103880 36,600 156 508 1024
2018-09-22 07:59:37 GMT 54.330872 -3.108323 36,675 156 508 1024
2018-09-22 07:59:33 GMT 54.339077 -3.114458 36,675 156 508 1024
2018-09-22 07:59:30 GMT 54.346344 -3.119875 35,350 156 508 1152
2018-09-22 07:59:27 GMT 54.354950 -3.126257 36,525 156 507 1088
2018-09-22 07:59:24 GMT 54.358814 -3.129106 36,475 156 507 1152
2018-09-22 07:59:21 GMT 54.364822 -3.133600 36,450 156 507 1216
2018-09-22 07:59:18 GMT 54.372162 -3.139020 36,375 156 507 1216
2018-09-22 07:59:15 GMT 54.380322 -3.145086 36,350 156 507 1216
2018-09-22 07:59:12 GMT 54.385490 -3.148998 36,250 156 508 1216
2018-09-22 07:59:09 GMT 54.391495 -3.153409 36,225 156 508 1216
2018-09-22 07:59:06 GMT 54.396664 -3.157321 35,950 156 508 1280
2018-09-22 07:59:03 GMT 54.405273 -3.163730 35,700 156 510 1536
2018-09-22 07:59:00 GMT 54.412163 -3.168807 36,000 156 509 1280
2018-09-22 07:58:57 GMT 54.417332 -3.172635 35,850 156 509 1408
2018-09-22 07:58:54 GMT 54.423752 -3.177472 35,900 156 509 1344
2018-09-22 07:58:51 GMT 54.430225 -3.182290 35,700 156 510 1536
2018-09-22 07:58:48 GMT 54.442749 -3.191609 35,750 156 510 1472
2018-09-22 07:58:45 GMT 54.442749 -3.191609 35,625 156 510 1472
2018-09-22 07:58:42 GMT 54.448746 -3.196133 35,550 156 510 1472
2018-09-22 07:58:39 GMT 54.453918 -3.199930 35,575 156 510 1536
2018-09-22 07:58:36 GMT 54.462997 -3.206676 35,475 156 510 1536
2018-09-22 07:58:33 GMT 54.468613 -3.210916 35,350 156 511 1536
2018-09-22 07:58:30 GMT 54.474216 -3.215082 35,325 156 511 1536
2018-09-22 07:58:27 GMT 54.482437 -3.221256 35,200 156 511 1600
2018-09-22 07:58:24 GMT 54.486786 -3.224487 35,150 156 512 1600
2018-09-22 07:58:21 GMT 54.493259 -3.229315 35,125 156 512 1600
2018-09-22 07:58:18 GMT 54.501080 -3.235141 35,025 156 512 1600
2018-09-22 07:58:15 GMT 54.509308 -3.241290 34,750 156 512 1600
2018-09-22 07:58:12 GMT 54.513657 -3.244521 34,725 156 512 1664
2018-09-22 07:58:08 GMT 54.525787 -3.253569 34,725 156 513 1600
2018-09-22 07:58:05 GMT 54.528824 -3.255865 34,650 156 513 1600
2018-09-22 07:58:02 GMT 54.536644 -3.261691 34,600 156 513 1536
2018-09-22 07:57:59 GMT 54.549225 -3.271098 34,475 156 513 1600
2018-09-22 07:57:56 GMT 54.549225 -3.271098 34,450 156 513 1664
2018-09-22 07:57:50 GMT 54.562271 -3.280873 34,275 156 514 1600
2018-09-22 07:57:47 GMT 54.566620 -3.284185 34,175 156 514 1472
2018-09-22 07:57:44 GMT 54.575363 -3.290648 34,175 156 514 1472
2018-09-22 07:57:41 GMT 54.580124 -3.294234 34,100 156 514 1472
2018-09-22 07:57:38 GMT 54.587109 -3.299477 34,050 156 514 1472
2018-09-22 07:57:35 GMT 54.595814 -3.305969 33,925 156 514 1472
2018-09-22 07:57:32 GMT 54.602795 -3.311213 33,850 156 514 1344
2018-09-22 07:57:28 GMT 54.610199 -3.316740 33,775 156 514 1344
2018-09-22 07:57:25 GMT 54.616714 -3.321616 33,725 156 514 1408
2018-09-22 07:57:22 GMT 54.622375 -3.325868 33,600 156 514 1408
2018-09-22 07:57:19 GMT 54.637207 -3.336936 33,450 156 514 1408
2018-09-22 07:57:16 GMT 54.637207 -3.336936 33,500 156 514 1408
2018-09-22 07:57:13 GMT 54.643761 -3.341758 33,450 156 514 1344
2018-09-22 07:57:10 GMT 54.649860 -3.346336 33,375 156 514 1344
2018-09-22 07:57:07 GMT 54.655075 -3.350247 33,325 156 513 1344
2018-09-22 07:57:04 GMT 54.662476 -3.355758 33,250 156 513 1344
2018-09-22 07:57:01 GMT 54.668564 -3.360282 33,150 156 513 1472
2018-09-22 07:56:58 GMT 54.673370 -3.363814 33,100 156 513 1472
2018-09-22 07:56:55 GMT 54.682480 -3.370541 33,050 156 513 1472
2018-09-22 07:56:52 GMT 54.689011 -3.375383 32,925 156 512 1536
2018-09-22 07:56:49 GMT 54.694225 -3.379211 32,825 156 512 1536
2018-09-22 07:56:46 GMT 54.701614 -3.384678 32,825 156 512 1536
2018-09-22 07:56:43 GMT 54.708141 -3.389532 32,750 156 512 1600
2018-09-22 07:56:40 GMT 54.713791 -3.393644 32,700 156 512 1600
2018-09-22 07:56:37 GMT 54.721619 -3.399461 32,575 156 511 1472
2018-09-22 07:56:34 GMT 54.729881 -3.405512 32,500 156 511 1472
2018-09-22 07:56:30 GMT 54.736359 -3.410286 32,475 157 507 1024
2018-09-22 07:56:27 GMT 54.743317 -3.415294 32,325 157 510 1536
2018-09-22 07:56:24 GMT 54.748970 -3.419411 32,225 157 510 1472
2018-09-22 07:56:21 GMT 54.755905 -3.424488 31,950 156 505 1088
2018-09-22 07:56:18 GMT 54.761536 -3.428623 32,125 157 510 1088
2018-09-22 07:56:15 GMT 54.768494 -3.433631 32,075 157 507 1216
2018-09-22 07:56:12 GMT 54.774536 -3.438074 32,075 157 507 1024
2018-09-22 07:56:09 GMT 54.781883 -3.443382 32,025 157 507 1216
2018-09-22 07:56:06 GMT 54.789658 -3.449124 31,925 157 507 1088
2018-09-22 07:56:02 GMT 54.797012 -3.454473 31,875 157 507 1088
2018-09-22 07:55:59 GMT 54.804749 -3.460128 31,825 156 506 1152
2018-09-22 07:55:56 GMT 54.808601 -3.463024 31,750 156 506 1216
2018-09-22 07:55:53 GMT 54.815918 -3.468448 31,700 156 506 1216
2018-09-22 07:55:50 GMT 54.829605 -3.478788 31,650 156 506 1152
2018-09-22 07:55:47 GMT 54.829605 -3.478788 31,625 156 505 1088
2018-09-22 07:55:43 GMT 54.838165 -3.485332 31,500 155 506 1216
2018-09-22 07:55:40 GMT 54.844986 -3.490583 31,450 155 506 1216
2018-09-22 07:55:37 GMT 54.852177 -3.496232 31,400 155 506 1280
2018-09-22 07:55:33 GMT 54.859810 -3.502391 31,325 154 506 1152
2018-09-22 07:55:30 GMT 54.864487 -3.506174 31,225 154 507 1152
2018-09-22 07:55:27 GMT 54.871216 -3.511828 31,200 153 508 1216
2018-09-22 07:55:23 GMT 54.879639 -3.519018 31,150 153 507 1152
2018-09-22 07:55:20 GMT 54.886765 -3.525113 31,075 153 506 1088
2018-09-22 07:55:16 GMT 54.894745 -3.531943 31,025 153 505 1088
2018-09-22 07:55:13 GMT 54.901428 -3.537678 30,975 153 505 1152
2018-09-22 07:55:10 GMT 54.908112 -3.543414 30,950 153 504 1216
2018-09-22 07:55:07 GMT 54.912693 -3.547336 30,875 153 503 1216
2018-09-22 07:55:04 GMT 54.918961 -3.552704 30,725 153 503 1216
2018-09-22 07:55:01 GMT 54.927292 -3.559893 30,750 153 503 1216
2018-09-22 07:54:58 GMT 54.931873 -3.563815 30,725 153 501 1152
2018-09-22 07:54:55 GMT 54.938919 -3.569830 30,650 153 500 1216
2018-09-22 07:54:50 GMT 54.952148 -3.581220 30,575 153 500 1280
2018-09-22 07:54:47 GMT 54.954620 -3.583401 30,525 153 499 1280
2018-09-22 07:54:44 GMT 54.960831 -3.588701 30,375 153 495 1216
2018-09-22 07:54:41 GMT 54.966202 -3.593337 30,325 153 496 1088
2018-09-22 07:54:38 GMT 54.973213 -3.599354 30,350 153 496 1088
2018-09-22 07:54:35 GMT 54.979340 -3.604647 30,225 153 495 1216
2018-09-22 07:54:32 GMT 54.986710 -3.610948 30,150 153 494 1216
2018-09-22 07:54:29 GMT 54.992859 -3.616250 30,150 153 494 1152
2018-09-22 07:54:23 GMT 55.005100 -3.626820 30,025 153 492 1280
2018-09-22 07:54:20 GMT 55.008358 -3.629650 30,000 153 492 1280
2018-09-22 07:54:17 GMT 55.017700 -3.637767 29,975 153 492 1280
2018-09-22 07:54:14 GMT 55.022598 -3.641968 29,800 153 491 1280
2018-09-22 07:54:11 GMT 55.028656 -3.647211 29,800 153 490 1280
2018-09-22 07:54:07 GMT 55.038803 -3.655943 29,700 153 489 1216
2018-09-22 07:54:04 GMT 55.042831 -3.659497 29,675 153 489 1216
2018-09-22 07:54:01 GMT 55.050110 -3.665718 29,575 153 487 1344
2018-09-22 07:53:57 GMT 55.056957 -3.671681 29,475 153 487 1408
2018-09-22 07:53:54 GMT 55.062973 -3.676866 29,425 153 486 1344
2018-09-22 07:53:51 GMT 55.069809 -3.682834 29,375 153 485 1216
2018-09-22 07:53:47 GMT 55.079865 -3.691487 29,275 153 484 1280
2018-09-22 07:53:43 GMT 55.084671 -3.695607 29,225 153 483 1344
2018-09-22 07:53:40 GMT 55.091858 -3.701908 29,075 153 482 1152
2018-09-22 07:53:37 GMT 55.096664 -3.706028 29,125 153 483 1216
2018-09-22 07:53:34 GMT 55.103466 -3.711881 29,000 153 481 1088
2018-09-22 07:53:31 GMT 55.109795 -3.717374 28,975 153 481 1152
2018-09-22 07:53:28 GMT 55.114197 -3.721215 28,950 153 480 1280
2018-09-22 07:53:25 GMT 55.120922 -3.727029 28,875 153 478 1280
2018-09-22 07:53:22 GMT 55.126053 -3.731474 28,825 153 478 1216
2018-09-22 07:53:19 GMT 55.137909 -3.741733 28,750 153 476 1152
2018-09-22 07:53:16 GMT 55.145782 -3.748519 28,650 153 474 1280
2018-09-22 07:53:12 GMT 55.145782 -3.748519 28,575 153 473 1088
2018-09-22 07:53:09 GMT 55.152054 -3.753931 28,550 153 474 1280
2018-09-22 07:53:06 GMT 55.157932 -3.759072 28,425 153 473 1024
2018-09-22 07:53:03 GMT 55.163040 -3.763464 28,425 153 471 1024
2018-09-22 07:53:00 GMT 55.168125 -3.767811 28,400 153 471 1152
2018-09-22 07:52:57 GMT 55.174759 -3.773561 28,375 153 470 1216
2018-09-22 07:52:54 GMT 55.182137 -3.779963 28,250 153 469 1408
2018-09-22 07:52:51 GMT 55.186794 -3.783958 28,200 153 468 1408
2018-09-22 07:52:48 GMT 55.197235 -3.793030 28,100 153 467 1088
2018-09-22 07:52:42 GMT 55.205368 -3.800021 28,025 153 465 1088
2018-09-22 07:52:39 GMT 55.209976 -3.804016 27,975 153 463 1280
2018-09-22 07:52:36 GMT 55.216507 -3.809671 27,925 153 462 1536
2018-09-22 07:52:33 GMT 55.220730 -3.813255 27,800 153 462 1728
2018-09-22 07:52:30 GMT 55.226440 -3.818234 27,325 153 459 1728
2018-09-22 07:52:27 GMT 55.234085 -3.824777 27,675 153 461 1280
2018-09-22 07:52:24 GMT 55.240562 -3.830400 27,575 153 459 1664
2018-09-22 07:52:21 GMT 55.244751 -3.834067 27,550 153 459 1728
2018-09-22 07:52:18 GMT 55.249329 -3.838025 27,475 153 458 1856
2018-09-22 07:52:15 GMT 55.256149 -3.843922 27,350 153 458 1728
2018-09-22 07:52:11 GMT 55.264118 -3.850874 27,300 153 458 1600
2018-09-22 07:52:08 GMT 55.270168 -3.856118 27,100 153 456 1856
2018-09-22 07:52:04 GMT 55.276218 -3.861361 27,075 153 457 1856
2018-09-22 07:52:01 GMT 55.287918 -3.871550 26,725 153 457 2240
2018-09-22 07:51:58 GMT 55.287918 -3.871550 26,800 153 457 2304
2018-09-22 07:51:55 GMT 55.295074 -3.877841 26,725 153 457 2240
2018-09-22 07:51:51 GMT 55.301125 -3.883084 26,400 153 457 1984
2018-09-22 07:51:48 GMT 55.307133 -3.888411 26,275 153 457 2112
2018-09-22 07:51:45 GMT 55.313553 -3.894007 26,400 153 456 2176
2018-09-22 07:51:42 GMT 55.318489 -3.898315 26,325 153 457 2240
2018-09-22 07:51:38 GMT 55.326031 -3.904891 26,175 153 457 2240
2018-09-22 07:51:35 GMT 55.331291 -3.909551 26,075 153 457 2112
2018-09-22 07:51:32 GMT 55.337723 -3.915172 26,000 153 457 1984
2018-09-22 07:51:28 GMT 55.346008 -3.922442 25,775 153 455 1920
2018-09-22 07:51:25 GMT 55.349762 -3.925674 25,725 153 455 1920
2018-09-22 07:51:22 GMT 55.356197 -3.931274 25,600 153 455 1984
2018-09-22 07:51:18 GMT 55.365227 -3.939181 25,500 153 454 1920
2018-09-22 07:51:15 GMT 55.370087 -3.943446 25,425 153 454 1792
2018-09-22 07:51:11 GMT 55.376495 -3.949002 25,300 153 453 1600
2018-09-22 07:51:07 GMT 55.391098 -3.961783 25,225 153 452 1536
2018-09-22 07:51:04 GMT 55.391098 -3.961783 25,125 153 450 1536
2018-09-22 07:51:01 GMT 55.394806 -3.965014 25,025 153 450 1664
2018-09-22 07:50:58 GMT 55.401119 -3.970559 25,025 153 449 1792
2018-09-22 07:50:55 GMT 55.414810 -3.982544 24,825 153 447 1856
2018-09-22 07:50:51 GMT 55.414810 -3.982544 24,825 153 446 1792
2018-09-22 07:50:48 GMT 55.421089 -3.987954 24,675 153 444 1920
2018-09-22 07:50:44 GMT 55.426956 -3.993114 24,575 153 444 2112
2018-09-22 07:50:41 GMT 55.431015 -3.996600 24,500 153 443 2176
2018-09-22 07:50:38 GMT 55.438339 -4.003063 24,350 153 442 2112
2018-09-22 07:50:35 GMT 55.444199 -4.008179 24,225 153 441 1920
2018-09-22 07:50:32 GMT 55.448547 -4.012007 24,175 153 441 1792
2018-09-22 07:50:26 GMT 55.460220 -4.022161 23,975 153 439 1664
2018-09-22 07:50:22 GMT 55.466721 -4.027904 23,900 153 437 1536
2018-09-22 07:50:18 GMT 55.474300 -4.034643 23,775 153 435 1472
2018-09-22 07:50:15 GMT 55.478630 -4.038420 23,725 153 434 1472
2018-09-22 07:50:12 GMT 55.484711 -4.043801 23,625 152 431 1536
2018-09-22 07:50:09 GMT 55.488968 -4.047630 23,575 152 429 1408
2018-09-22 07:50:06 GMT 55.496063 -4.054038 23,475 152 430 1472
2018-09-22 07:50:03 GMT 55.501007 -4.058449 23,450 152 428 1344
2018-09-22 07:50:00 GMT 55.514660 -4.071035 23,300 152 425 1216
2018-09-22 07:49:55 GMT 55.520203 -4.076185 23,225 151 422 1408
2018-09-22 07:49:52 GMT 55.520203 -4.076185 23,200 151 421 1408
2018-09-22 07:49:49 GMT 55.524673 -4.080422 23,125 151 421 1600
2018-09-22 07:49:46 GMT 55.531837 -4.087257 23,050 151 420 1856
2018-09-22 07:49:43 GMT 55.535191 -4.090605 22,725 154 414 1984
2018-09-22 07:49:39 GMT 55.541290 -4.096527 22,800 151 417 2304
2018-09-22 07:49:36 GMT 55.546036 -4.100990 22,700 154 414 1984
2018-09-22 07:49:33 GMT 55.551910 -4.105807 22,625 155 411 1920
2018-09-22 07:49:30 GMT 55.557907 -4.109831 22,300 169 391 2368
2018-09-22 07:49:27 GMT 55.562843 -4.112577 22,350 164 398 2496
2018-09-22 07:49:24 GMT 55.568161 -4.115046 22,250 168 393 2432
2018-09-22 07:49:21 GMT 55.580906 -4.118156 21,900 174 384 2240
2018-09-22 07:49:17 GMT 55.580906 -4.118156 21,975 177 381 2432
2018-09-22 07:49:14 GMT 55.585793 -4.118414 21,875 179 378 2688
2018-09-22 07:49:11 GMT 55.591690 -4.118042 21,650 185 372 3072
2018-09-22 07:49:05 GMT 55.601120 -4.115545 21,325 197 362 2816
2018-09-22 07:49:02 GMT 55.611145 -4.109469 21,175 205 352 2816
2018-09-22 07:48:59 GMT 55.611145 -4.109469 21,125 205 352 2816
2018-09-22 07:48:55 GMT 55.616959 -4.104392 21,000 207 351 3072
2018-09-22 07:48:52 GMT 55.626247 -4.095240 20,675 210 350 3264
2018-09-22 07:48:49 GMT 55.626247 -4.095240 20,550 211 349 3008
2018-09-22 07:48:46 GMT 55.629040 -4.092407 20,475 211 349 2752
2018-09-22 07:48:43 GMT 55.633255 -4.088079 20,325 211 349 2624
2018-09-22 07:48:39 GMT 55.638794 -4.082336 20,100 211 347 2432
2018-09-22 07:48:36 GMT 55.643234 -4.077676 19,975 211 347 2368
2018-09-22 07:48:33 GMT 55.648727 -4.071849 19,925 211 346 2368
2018-09-22 07:48:29 GMT 55.653900 -4.066401 19,650 212 343 2688
2018-09-22 07:48:26 GMT 55.657425 -4.062611 19,600 212 343 2624
2018-09-22 07:48:22 GMT 55.662827 -4.056702 19,425 212 342 2560
2018-09-22 07:48:18 GMT 55.668228 -4.050876 19,175 212 341 2496
2018-09-22 07:48:15 GMT 55.673584 -4.045133 19,050 212 339 2432
2018-09-22 07:48:12 GMT 55.676788 -4.041637 18,975 212 338 2368
2018-09-22 07:48:07 GMT 55.682098 -4.035811 18,825 212 336 2240
2018-09-22 07:48:04 GMT 55.686577 -4.030867 18,675 212 334 2176
2018-09-22 07:48:01 GMT 55.689972 -4.027072 18,600 212 334 2048
2018-09-22 07:47:58 GMT 55.693935 -4.022799 18,500 212 332 1600
2018-09-22 07:47:55 GMT 55.698589 -4.017649 18,425 212 329 960
2018-09-22 07:47:51 GMT 55.707550 -4.007929 18,350 212 319 320
2018-09-22 07:47:48 GMT 55.707550 -4.007929 18,325 212 319 320
2018-09-22 07:47:45 GMT 55.711075 -4.004100 18,300 212 316 320
2018-09-22 07:47:42 GMT 55.714050 -4.000854 18,300 212 312 512
2018-09-22 07:47:39 GMT 55.719677 -3.994818 18,225 212 306 1600
2018-09-22 07:47:35 GMT 55.723297 -3.990950 18,125 212 302 2560
2018-09-22 07:47:32 GMT 55.727097 -3.986789 18,075 212 301 3072
2018-09-22 07:47:28 GMT 55.732105 -3.981514 17,775 212 301 3200
2018-09-22 07:47:25 GMT 55.735703 -3.977633 17,550 212 301 3200
2018-09-22 07:47:22 GMT 55.738998 -3.974055 17,475 212 301 3136
2018-09-22 07:47:18 GMT 55.747330 -3.965120 17,075 212 302 3200
2018-09-22 07:47:15 GMT 55.747330 -3.965120 17,050 212 300 3200
2018-09-22 07:47:12 GMT 55.750900 -3.961320 16,875 212 301 3200
2018-09-22 07:47:09 GMT 55.754242 -3.957658 16,775 212 302 3200
2018-09-22 07:47:05 GMT 55.758736 -3.952847 16,525 212 301 3136
2018-09-22 07:47:02 GMT 55.762299 -3.948919 16,375 212 301 3200
2018-09-22 07:46:59 GMT 55.766323 -3.944607 15,975 212 301 3264
2018-09-22 07:46:55 GMT 55.771774 -3.938682 16,000 212 301 2880
2018-09-22 07:46:52 GMT 55.777496 -3.932440 15,725 212 301 3264
2018-09-22 07:46:46 GMT 55.781033 -3.928556 15,550 212 301 3008
2018-09-22 07:46:43 GMT 55.785316 -3.923922 15,400 212 301 3008
2018-09-22 07:46:40 GMT 55.788666 -3.920317 15,225 212 300 2880
2018-09-22 07:46:37 GMT 55.792694 -3.915960 14,850 212 298 3264
2018-09-22 07:46:32 GMT 55.797867 -3.910384 14,825 212 299 3264
2018-09-22 07:46:29 GMT 55.800957 -3.907099 14,700 212 298 3328
2018-09-22 07:46:26 GMT 55.804729 -3.902979 14,500 212 298 3072
2018-09-22 07:46:23 GMT 55.809174 -3.898149 14,325 212 298 3008
2018-09-22 07:46:19 GMT 55.812469 -3.894570 14,225 212 297 3008
2018-09-22 07:46:16 GMT 55.816879 -3.889675 13,975 212 296 3136
2018-09-22 07:46:12 GMT 55.821022 -3.885126 13,825 212 294 3136
2018-09-22 07:46:09 GMT 55.825165 -3.880491 13,675 213 293 3136
2018-09-22 07:46:06 GMT 55.828377 -3.876972 13,550 213 292 3264
2018-09-22 07:46:02 GMT 55.832939 -3.871908 13,225 213 291 3200
2018-09-22 07:45:59 GMT 55.836105 -3.868303 13,150 213 290 3136
2018-09-22 07:45:56 GMT 55.839066 -3.865024 13,000 213 289 3136
2018-09-22 07:45:53 GMT 55.842899 -3.860750 12,750 213 288 3136
2018-09-22 07:45:50 GMT 55.846066 -3.857231 12,525 213 287 3072
2018-09-22 07:45:47 GMT 55.850784 -3.851956 12,400 213 286 3008
2018-09-22 07:45:43 GMT 55.854538 -3.847618 12,200 215 283 2880
2018-09-22 07:45:40 GMT 55.857567 -3.844013 12,075 216 282 2880
2018-09-22 07:45:36 GMT 55.861336 -3.839035 11,925 221 278 2944
2018-09-22 07:45:32 GMT 55.865433 -3.832254 11,700 227 275 3264
2018-09-22 07:45:29 GMT 55.867805 -3.827534 11,475 232 272 3392
2018-09-22 07:45:26 GMT 55.870010 -3.822160 11,175 245 267 3136
2018-09-22 07:45:23 GMT 55.872181 -3.815689 11,175 245 267 3136
2018-09-22 07:45:20 GMT 55.873997 -3.808479 10,875 252 265 3072
2018-09-22 07:45:16 GMT 55.875320 -3.801436 10,800 256 263 3136
2018-09-22 07:45:11 GMT 55.876652 -3.790970 10,525 260 261 3264
2018-09-22 07:45:08 GMT 55.877151 -3.786288 10,325 260 260 3264
2018-09-22 07:45:05 GMT 55.877769 -3.779984 10,250 260 260 3392
2018-09-22 07:45:01 GMT 55.878700 -3.770714 9,975 260 258 3456
2018-09-22 07:44:58 GMT 55.879349 -3.764482 9,825 260 257 3392
2018-09-22 07:44:55 GMT 55.879852 -3.759405 9,675 260 257 3392
2018-09-22 07:44:51 GMT 55.880814 -3.749417 9,425 260 257 3520
2018-09-22 07:44:48 GMT 55.881447 -3.743162 9,225 261 256 3584
2018-09-22 07:44:40 GMT 55.882889 -3.728228 8,825 261 255 3648
2018-09-22 07:44:37 GMT 55.884338 -3.713795 8,475 261 254 3392
2018-09-22 07:44:34 GMT 55.884338 -3.713795 8,375 260 254 3264
2018-09-22 07:44:30 GMT 55.885117 -3.705555 8,275 260 254 3264
2018-09-22 07:44:27 GMT 55.887077 -3.686514 7,900 260 250 3392
2018-09-22 07:44:20 GMT 55.887077 -3.686514 7,625 260 248 3456
2018-09-22 07:44:17 GMT 55.887825 -3.679304 7,425 260 248 3392
2018-09-22 07:44:11 GMT 55.888870 -3.669267 7,125 260 244 3648
2018-09-22 07:44:08 GMT 55.889603 -3.662193 6,675 261 243 3584
2018-09-22 07:44:00 GMT 55.891270 -3.645229 6,375 260 243 2752
2018-09-22 07:43:51 GMT 55.892990 -3.628235 6,050 260 241 1088
2018-09-22 07:43:47 GMT 55.893688 -3.620768 6,000 260 241 1088
2018-09-22 07:43:41 GMT 55.894852 -3.609180 5,875 261 237 896
2018-09-22 07:43:37 GMT 55.895599 -3.601456 5,725 261 237 832
2018-09-22 07:43:33 GMT 55.896576 -3.591499 5,750 261 237 768
2018-09-22 07:43:29 GMT 55.897228 -3.584547 5,725 261 238 768
2018-09-22 07:43:26 GMT 55.897552 -3.581457 5,700 260 238 704
2018-09-22 07:43:20 GMT 55.898762 -3.569098 5,600 260 238 704
2018-09-22 07:43:17 GMT 55.899399 -3.562567 5,500 259 235 2176
2018-09-22 07:43:12 GMT 55.900452 -3.552579 5,500 260 237 768
2018-09-22 07:43:09 GMT 55.900951 -3.547554 5,475 260 237 832
2018-09-22 07:43:06 GMT 55.901550 -3.541759 5,425 260 237 960
2018-09-22 07:43:02 GMT 55.902374 -3.533353 5,350 261 236 1344
2018-09-22 07:42:58 GMT 55.903744 -3.520775 5,225 259 234 2432
2018-09-22 07:42:55 GMT 55.903744 -3.520775 5,125 254 230 3072
2018-09-22 07:42:52 GMT 55.904755 -3.513711 4,950 254 230 3072
2018-09-22 07:42:48 GMT 55.905579 -3.508634 4,225 251 228 3200
2018-09-22 07:42:45 GMT 55.906677 -3.502974 4,650 250 228 3200
2018-09-22 07:42:42 GMT 55.909470 -3.491322 4,350 244 224 1920
2018-09-22 07:42:38 GMT 55.909470 -3.491322 4,325 243 223 1664
2018-09-22 07:42:35 GMT 55.910797 -3.486744 4,225 241 220 1344
2018-09-22 07:42:31 GMT 55.913288 -3.478975 4,075 240 207 1664
2018-09-22 07:42:28 GMT 55.914452 -3.475456 4,075 240 207 1664
2018-09-22 07:42:25 GMT 55.915989 -3.470821 3,950 240 199 2240
2018-09-22 07:42:20 GMT 55.918488 -3.463273 3,750 240 194 2880
2018-09-22 07:42:15 GMT 55.920639 -3.456698 3,475 239 190 3456
2018-09-22 07:42:10 GMT 55.924133 -3.446360 3,075 240 188 3904
2018-09-22 07:42:07 GMT 55.924133 -3.446360 2,975 240 188 3904
2018-09-22 07:42:04 GMT 55.925308 -3.442882 2,800 240 188 3840
2018-09-22 07:42:01 GMT 55.927299 -3.436747 2,525 241 186 2816
2018-09-22 07:41:58 GMT 55.928371 -3.433485 2,400 241 186 2816
2018-09-22 07:41:55 GMT 55.929657 -3.429482 2,250 239 171 1152
2018-09-22 07:41:47 GMT 55.932999 -3.419245 2,000 239 175 1088
2018-09-22 07:41:44 GMT 55.934097 -3.416061 1,975 238 169 1216
2018-09-22 07:41:40 GMT 55.936050 -3.410568 1,850 236 158 1728
2018-09-22 07:41:37 GMT 55.936890 -3.408337 1,800 236 155 1920
2018-09-22 07:41:33 GMT 55.938263 -3.404763 1,700 235 152 2624
2018-09-22 07:41:27 GMT 55.941101 -3.397522 1,325 237 146 3328
2018-09-22 07:41:23 GMT 55.942200 -3.394775 1,175 237 146 3520
2018-09-22 07:41:19 GMT 55.944199 -3.389282 850 238 147 3712
2018-09-22 07:41:09 GMT 55.947784 -3.378962 275 239 154 2304
2018-09-22 07:41:03 GMT 55.949821 -3.373011 0 239 145
2018-09-22 07:40:57 GMT 55.951927 -3.366795 0 239 120
2018-09-22 07:36:05 GMT 55.952961 -3.358040 0 59 15
2018-09-22 07:35:28 GMT 55.951733 -3.359528 0 329 10
2018-09-22 07:35:20 GMT 55.951447 -3.359215 0 323 10
2018-09-22 07:35:10 GMT 55.951180 -3.358598 0 298 11
2018-09-22 07:34:54 GMT 55.950741 -3.357847 0 2 9
2018-09-22 07:34:49 GMT 55.950565 -3.357905 0 28 10
2018-09-22 07:34:39 GMT 55.950005 -3.358448 0 28 13
2018-09-22 07:34:28 GMT 55.949490 -3.358612 0 334 10
2018-09-22 07:34:19 GMT 55.949169 -3.358196 0 320 8
2018-09-22 07:34:09 GMT 55.948952 -3.357863 0 6
2018-09-22 07:33:42 GMT 55.948898 -3.357525 0 0
2018-09-22 07:33:28 GMT 55.948906 -3.357530 0 0
2018-09-22 07:33:17 GMT 55.948898 -3.357525 0 0
2018-09-22 07:32:52 GMT 55.948906 -3.357530 0 0
2018-09-22 07:32:47 GMT 55.948914 -3.357525 0 0
2018-09-22 07:32:26 GMT 55.948906 -3.357530 0 0
2018-09-22 07:32:17 GMT 55.948898 -3.357525 0 0
2018-09-22 07:31:32 GMT 55.948906 -3.357530 0 0
2018-09-22 07:31:22 GMT 55.948921 -3.357525 0 0
2018-09-22 07:31:12 GMT 55.948917 -3.357509 0 0
2018-09-22 07:30:57 GMT 55.948921 -3.357525 0 0
2018-09-22 07:30:53 GMT 55.948917 -3.357509 0 0
2018-09-22 07:30:35 GMT 55.948921 -3.357525 0 0
2018-09-22 07:30:24 GMT 55.948914 -3.357525 0 0

Making use of Plane Finder data

You are free to use the raw flight data, aircraft information and images provided in this report for your own purposes provided the data is correctly attributed to Plane Finder. We ask that you please credit Plane Finder and link to planefinder.net in close proximity to the content.

Optionally one of the following logos (no smaller then 150x24px) can be used and must link to planefinder.net

Embedding the Plane Finder map

You are welcome to embed the Plane Finder playback map on your website to offer visitors a more interactive experience. We suggest using the following HTML code:

<iframe src="//planefinder.net/data/report/FR1119-EI-FRN-7700-squawk-2018-09-22/map" width="800" height="600" seamless="seamless"></iframe>

Where our data comes from

Plane Finder has a global network of data feeds and antenna radars that receive data broadcast directly from aircraft. The primary technologies used are ADS-B and MLAT. We also show feeds from the FAA and a FLARM glider feed.

Click here to find out more about the Plane Finder network.

How we collect our data